Rock Creek, Texas
Current Conditions -  °F | °C
As of 1:51 PM on Thursday 30 Oct 2014 (Local Time) from KACT Reporting Station
Broken Clouds Broken Clouds  
Wind Chill: 70°   Ceiling: 6000
Heat Index: 70°   Visibility: 10mi
Dew Point: 49°   Wind: 7mph
Humidity: 47%   Direction: 160°SSE
Pressure: 30.12"   Gusts: NA
Location:  31.618°N, 97.2031°W
Report Text: KACT 301851Z 16006KT 10SM BKN060 BKN090 21/09 A3012 RMK AO2 SLP194 T02110094
Loading
Personal Weather Stations






























Interactive Weather Map
Tropical Storm Tracking
New forecast layout! Learn more

10-Day Weather Forecast

Advertisements
Track Severe Weather on mobile